Time;durP1;ratioP1;P1;durP2;ratioP2;P2;SDS_P1;SDS_P2;PMS_P1;PMS_P2;Temp;Humidity;BMP_temperature;BMP_pressure;BME280_temperature;BME280_humidity;BME280_pressure;Samples;Min_cycle;Max_cycle;Signal;HPM_P1;HPM_P2
2022/03/21 00:01:02;;;;;;;;;;;21.50;29.90;;;;;;484747;246;1184;-40
2022/03/21 00:03:04;;;;;;;;;;;21.60;29.90;;;;;;484482;246;1247;-39
2022/03/21 00:05:05;;;;;;;;;;;21.60;29.90;;;;;;484755;246;1072;-40
2022/03/21 00:07:06;;;;;;;;;;;21.60;29.90;;;;;;484589;246;1077;-39
2022/03/21 00:09:08;;;;;;;;;;;21.60;29.90;;;;;;484337;246;1179;-40
2022/03/21 00:11:09;;;;;;;;;;;21.60;29.90;;;;;;484587;246;2200;-40
2022/03/21 00:13:12;;;;;;;;;;;21.50;29.90;;;;;;484289;246;1063;-40
2022/03/21 00:15:12;;;;;;;;;;;21.60;29.90;;;;;;484615;246;2372;-39
2022/03/21 00:17:13;;;;;;;;;;;21.60;29.90;;;;;;484310;246;1065;-39
2022/03/21 00:19:14;;;;;;;;;;;21.60;29.90;;;;;;484329;246;1070;-40
2022/03/21 00:21:17;;;;;;;;;;;21.60;29.80;;;;;;484750;246;1272;-39
2022/03/21 00:23:18;;;;;;;;;;;21.60;29.80;;;;;;484513;242;2380;-39
2022/03/21 00:25:19;;;;;;;;;;;21.60;29.80;;;;;;484766;246;1032;-39
2022/03/21 00:27:20;;;;;;;;;;;21.60;29.80;;;;;;484471;246;1105;-39
2022/03/21 00:29:22;;;;;;;;;;;21.60;29.80;;;;;;484298;246;1070;-39
2022/03/21 00:31:23;;;;;;;;;;;21.60;29.80;;;;;;484520;246;2132;-39
2022/03/21 00:33:24;;;;;;;;;;;21.60;29.80;;;;;;484335;246;1088;-39
2022/03/21 00:35:26;;;;;;;;;;;21.60;29.80;;;;;;484325;246;1103;-40
2022/03/21 00:37:27;;;;;;;;;;;21.60;29.90;;;;;;484245;246;2173;-40
2022/03/21 00:39:28;;;;;;;;;;;21.60;29.90;;;;;;484462;246;1215;-40
2022/03/21 00:41:32;;;;;;;;;;;21.60;29.90;;;;;;484361;246;1038;-39
2022/03/21 00:43:31;;;;;;;;;;;21.50;29.90;;;;;;484614;246;1630;-39
2022/03/21 00:45:32;;;;;;;;;;;21.50;29.90;;;;;;484701;246;1050;-39
2022/03/21 00:47:34;;;;;;;;;;;21.50;29.80;;;;;;484296;246;996;-39
2022/03/21 00:49:35;;;;;;;;;;;21.60;29.90;;;;;;484322;246;1060;-39
2022/03/21 00:51:36;;;;;;;;;;;21.50;29.80;;;;;;484273;246;2177;-40
2022/03/21 00:53:37;;;;;;;;;;;21.50;29.90;;;;;;484491;246;1273;-39
2022/03/21 00:55:39;;;;;;;;;;;21.50;29.90;;;;;;484307;246;997;-40
2022/03/21 00:57:40;;;;;;;;;;;21.50;29.90;;;;;;484754;246;1087;-39
2022/03/21 00:59:42;;;;;;;;;;;21.50;29.90;;;;;;484761;246;1082;-39
2022/03/21 01:01:43;;;;;;;;;;;21.50;29.90;;;;;;484643;246;1112;-39
2022/03/21 01:03:44;;;;;;;;;;;21.50;29.90;;;;;;484663;246;1093;-40
2022/03/21 01:05:45;;;;;;;;;;;21.50;29.90;;;;;;484285;246;1083;-39
2022/03/21 01:07:47;;;;;;;;;;;21.60;29.90;;;;;;484267;246;1067;-39
2022/03/21 01:09:48;;;;;;;;;;;21.50;29.90;;;;;;484430;246;1154;-39
2022/03/21 01:11:49;;;;;;;;;;;21.60;29.90;;;;;;484575;246;2124;-39
2022/03/21 01:13:51;;;;;;;;;;;21.60;29.80;;;;;;484786;246;1051;-39
2022/03/21 01:15:52;;;;;;;;;;;21.60;29.80;;;;;;484758;246;1042;-40
2022/03/21 01:17:53;;;;;;;;;;;21.50;29.80;;;;;;484568;246;1338;-40
2022/03/21 01:19:55;;;;;;;;;;;21.50;29.80;;;;;;484690;246;1164;-39
2022/03/21 01:21:56;;;;;;;;;;;21.60;29.80;;;;;;484519;246;1087;-39
2022/03/21 01:23:57;;;;;;;;;;;21.60;29.80;;;;;;484639;246;1265;-40
2022/03/21 01:25:59;;;;;;;;;;;21.60;29.80;;;;;;484620;246;1517;-39
2022/03/21 01:28:00;;;;;;;;;;;21.60;29.80;;;;;;484718;246;1061;-39
2022/03/21 01:30:01;;;;;;;;;;;21.60;29.80;;;;;;484281;246;2195;-40
2022/03/21 01:32:03;;;;;;;;;;;21.60;29.80;;;;;;484291;246;1331;-39
2022/03/21 01:34:04;;;;;;;;;;;21.50;29.80;;;;;;484750;246;960;-40
2022/03/21 01:36:05;;;;;;;;;;;21.50;29.80;;;;;;484469;246;1295;-40
2022/03/21 01:38:07;;;;;;;;;;;21.50;29.80;;;;;;484263;246;1144;-40
2022/03/21 01:40:08;;;;;;;;;;;21.50;29.90;;;;;;484288;246;1224;-39
2022/03/21 01:42:09;;;;;;;;;;;21.50;29.80;;;;;;484672;246;1346;-39
2022/03/21 01:44:11;;;;;;;;;;;21.50;29.80;;;;;;484402;246;1099;-40
2022/03/21 01:46:12;;;;;;;;;;;21.50;29.80;;;;;;484755;246;1026;-40
2022/03/21 01:48:13;;;;;;;;;;;21.50;29.90;;;;;;484732;246;1088;-40
2022/03/21 01:50:15;;;;;;;;;;;21.50;29.90;;;;;;484709;246;2109;-40
2022/03/21 01:52:16;;;;;;;;;;;21.50;29.90;;;;;;484677;246;1036;-39
2022/03/21 01:56:50;;;;;;;;;;;21.50;29.80;;;;;;473497;245;1248;-40
2022/03/21 01:58:51;;;;;;;;;;;21.50;29.80;;;;;;484751;246;1071;-39
2022/03/21 02:00:53;;;;;;;;;;;21.50;29.80;;;;;;484612;246;1146;-40
2022/03/21 02:02:54;;;;;;;;;;;21.50;29.80;;;;;;484747;246;1288;-40
2022/03/21 02:04:55;;;;;;;;;;;21.50;29.80;;;;;;484609;246;1032;-39
2022/03/21 02:06:57;;;;;;;;;;;21.50;29.80;;;;;;484338;246;1310;-40
2022/03/21 02:08:58;;;;;;;;;;;21.50;29.80;;;;;;484630;246;1178;-39
2022/03/21 02:11:00;;;;;;;;;;;21.50;29.80;;;;;;484303;246;2113;-39
2022/03/21 02:13:01;;;;;;;;;;;21.50;29.80;;;;;;484375;246;2218;-40
2022/03/21 02:15:02;;;;;;;;;;;21.50;29.80;;;;;;484271;246;1032;-40
2022/03/21 02:17:03;;;;;;;;;;;21.60;29.80;;;;;;484678;246;1263;-40
2022/03/21 02:19:05;;;;;;;;;;;21.50;29.80;;;;;;484321;246;1090;-39
2022/03/21 02:21:06;;;;;;;;;;;21.50;29.80;;;;;;484380;246;1065;-39
2022/03/21 02:23:08;;;;;;;;;;;21.50;29.90;;;;;;484299;246;1053;-39
2022/03/21 02:25:09;;;;;;;;;;;21.50;29.80;;;;;;484556;246;1182;-40
2022/03/21 02:27:10;;;;;;;;;;;21.50;29.80;;;;;;484291;246;1405;-39
2022/03/21 02:29:11;;;;;;;;;;;21.50;29.90;;;;;;484504;246;1072;-39
2022/03/21 02:31:13;;;;;;;;;;;21.50;29.90;;;;;;484283;246;2121;-40
2022/03/21 02:33:14;;;;;;;;;;;21.50;29.80;;;;;;484741;246;1026;-39
2022/03/21 02:35:15;;;;;;;;;;;21.50;29.80;;;;;;484332;246;1089;-40
2022/03/21 02:37:17;;;;;;;;;;;21.50;29.90;;;;;;484415;246;1171;-39
2022/03/21 02:39:18;;;;;;;;;;;21.50;29.80;;;;;;484749;246;1040;-40
2022/03/21 02:41:19;;;;;;;;;;;21.50;29.80;;;;;;484272;246;1166;-40
2022/03/21 02:43:21;;;;;;;;;;;21.50;29.80;;;;;;484751;246;1135;-40
2022/03/21 02:45:22;;;;;;;;;;;21.60;29.90;;;;;;484714;246;1158;-40
2022/03/21 02:47:23;;;;;;;;;;;21.50;29.80;;;;;;484228;246;1222;-40
2022/03/21 02:49:25;;;;;;;;;;;21.50;29.80;;;;;;484724;246;984;-39
2022/03/21 02:51:26;;;;;;;;;;;21.50;29.80;;;;;;484544;246;2191;-39
2022/03/21 02:53:27;;;;;;;;;;;21.50;29.80;;;;;;484250;246;1052;-40
2022/03/21 02:55:28;;;;;;;;;;;21.60;29.80;;;;;;484457;246;1229;-39
2022/03/21 02:57:31;;;;;;;;;;;21.50;29.80;;;;;;484259;246;1058;-39
2022/03/21 02:59:31;;;;;;;;;;;21.60;29.80;;;;;;484279;246;2610;-40
2022/03/21 03:01:32;;;;;;;;;;;21.60;29.80;;;;;;484503;246;1057;-40
2022/03/21 03:03:34;;;;;;;;;;;21.50;29.80;;;;;;484528;246;1074;-40
2022/03/21 03:05:35;;;;;;;;;;;21.50;29.80;;;;;;484629;246;2063;-39
2022/03/21 03:07:36;;;;;;;;;;;21.50;29.80;;;;;;484375;246;1039;-40
2022/03/21 03:09:38;;;;;;;;;;;21.50;29.80;;;;;;484712;246;1109;-40
2022/03/21 03:11:39;;;;;;;;;;;21.50;29.90;;;;;;484176;246;2156;-39
2022/03/21 03:13:40;;;;;;;;;;;21.50;29.80;;;;;;484297;246;1094;-40
2022/03/21 03:15:42;;;;;;;;;;;21.50;29.90;;;;;;484694;246;1110;-40
2022/03/21 03:17:43;;;;;;;;;;;21.60;29.90;;;;;;484701;246;1031;-40
2022/03/21 03:19:44;;;;;;;;;;;21.50;29.80;;;;;;484328;246;1069;-40
2022/03/21 03:21:46;;;;;;;;;;;21.60;29.80;;;;;;484371;246;1068;-39
2022/03/21 03:23:47;;;;;;;;;;;21.50;29.80;;;;;;484724;246;1079;-40
2022/03/21 03:25:48;;;;;;;;;;;21.50;29.80;;;;;;484544;246;1359;-39
2022/03/21 03:27:50;;;;;;;;;;;21.60;29.90;;;;;;484698;246;1022;-39
2022/03/21 03:29:51;;;;;;;;;;;21.60;29.90;;;;;;484770;246;1387;-39
2022/03/21 03:31:52;;;;;;;;;;;21.50;29.90;;;;;;484300;246;2128;-40
2022/03/21 03:33:53;;;;;;;;;;;21.50;29.90;;;;;;484788;246;1069;-40
2022/03/21 03:35:55;;;;;;;;;;;21.50;29.90;;;;;;484562;246;1293;-40
2022/03/21 03:37:56;;;;;;;;;;;21.50;29.80;;;;;;484290;246;1271;-40
2022/03/21 03:39:57;;;;;;;;;;;21.60;29.80;;;;;;484495;246;1129;-40
2022/03/21 03:41:59;;;;;;;;;;;21.50;29.80;;;;;;484275;246;1311;-40
2022/03/21 03:44:01;;;;;;;;;;;21.50;29.80;;;;;;484330;246;997;-40
2022/03/21 03:46:01;;;;;;;;;;;21.50;29.90;;;;;;484676;246;1836;-40
2022/03/21 03:48:03;;;;;;;;;;;21.50;29.80;;;;;;484721;246;1186;-39
2022/03/21 03:50:04;;;;;;;;;;;21.60;29.80;;;;;;484690;246;1090;-39
2022/03/21 03:52:05;;;;;;;;;;;21.60;29.80;;;;;;484494;246;2121;-39
2022/03/21 03:54:07;;;;;;;;;;;21.60;29.90;;;;;;484274;246;1030;-40
2022/03/21 03:56:08;;;;;;;;;;;21.50;29.80;;;;;;484509;246;1121;-39
2022/03/21 03:58:09;;;;;;;;;;;21.50;29.90;;;;;;484325;246;1037;-40
2022/03/21 04:00:11;;;;;;;;;;;21.50;29.90;;;;;;484348;246;1184;-40
2022/03/21 04:02:12;;;;;;;;;;;21.50;29.80;;;;;;484749;246;1018;-40
2022/03/21 04:04:13;;;;;;;;;;;21.50;29.80;;;;;;484769;246;1049;-39
2022/03/21 04:06:14;;;;;;;;;;;21.50;29.80;;;;;;484298;246;1019;-39
2022/03/21 04:08:16;;;;;;;;;;;21.50;29.80;;;;;;484309;246;1098;-39
2022/03/21 04:10:17;;;;;;;;;;;21.60;29.90;;;;;;484639;246;1096;-39
2022/03/21 04:12:18;;;;;;;;;;;21.50;29.90;;;;;;484283;246;2153;-40
2022/03/21 04:14:20;;;;;;;;;;;21.50;29.90;;;;;;484287;246;1064;-40
2022/03/21 04:16:21;;;;;;;;;;;21.60;29.90;;;;;;484258;246;1097;-40
2022/03/21 04:18:22;;;;;;;;;;;21.60;29.90;;;;;;484315;246;1052;-40
2022/03/21 04:20:24;;;;;;;;;;;21.60;29.90;;;;;;484462;246;1045;-39
2022/03/21 04:22:25;;;;;;;;;;;21.60;29.80;;;;;;484407;246;1086;-40
2022/03/21 04:24:27;;;;;;;;;;;21.50;29.80;;;;;;484403;246;1037;-39
2022/03/21 04:26:28;;;;;;;;;;;21.50;29.80;;;;;;484298;246;1298;-39
2022/03/21 04:28:29;;;;;;;;;;;21.60;29.90;;;;;;484744;246;1025;-39
2022/03/21 04:30:31;;;;;;;;;;;21.60;29.90;;;;;;484283;246;997;-39
2022/03/21 04:32:32;;;;;;;;;;;21.60;29.90;;;;;;484557;246;2129;-40
2022/03/21 04:34:33;;;;;;;;;;;21.50;29.90;;;;;;484468;246;938;-39
2022/03/21 04:36:35;;;;;;;;;;;21.50;29.90;;;;;;484498;246;1122;-39
2022/03/21 04:38:36;;;;;;;;;;;21.50;29.90;;;;;;484222;246;1235;-39
2022/03/21 04:40:37;;;;;;;;;;;21.50;29.90;;;;;;484267;246;1051;-39
2022/03/21 04:42:40;;;;;;;;;;;21.60;29.90;;;;;;484253;246;1206;-39
2022/03/21 04:44:40;;;;;;;;;;;21.60;29.90;;;;;;484250;246;2615;-40
2022/03/21 04:46:41;;;;;;;;;;;21.60;29.90;;;;;;484254;246;1273;-40
2022/03/21 04:48:42;;;;;;;;;;;21.60;29.80;;;;;;484599;246;1232;-40
2022/03/21 04:50:44;;;;;;;;;;;21.50;29.80;;;;;;484404;246;1072;-40
2022/03/21 04:52:46;;;;;;;;;;;21.60;29.90;;;;;;484237;246;2117;-39
2022/03/21 04:54:48;;;;;;;;;;;21.60;29.90;;;;;;484269;246;2467;-39
2022/03/21 04:56:48;;;;;;;;;;;21.60;29.90;;;;;;484409;245;1607;-40
2022/03/21 04:58:49;;;;;;;;;;;21.60;29.90;;;;;;484665;246;1047;-40
2022/03/21 05:00:50;;;;;;;;;;;21.60;29.80;;;;;;484313;246;1149;-40
2022/03/21 05:02:52;;;;;;;;;;;21.60;29.90;;;;;;484656;246;1217;-39
2022/03/21 05:04:53;;;;;;;;;;;21.60;29.80;;;;;;484291;246;1179;-40
2022/03/21 05:06:55;;;;;;;;;;;21.60;29.80;;;;;;484478;246;1322;-39
2022/03/21 05:08:56;;;;;;;;;;;21.60;29.80;;;;;;484736;246;1207;-40
2022/03/21 05:10:57;;;;;;;;;;;21.60;29.80;;;;;;484383;246;1026;-40
2022/03/21 05:13:00;;;;;;;;;;;21.60;29.80;;;;;;484266;246;2144;-40
2022/03/21 05:15:02;;;;;;;;;;;21.50;29.90;;;;;;484748;246;1028;-40
2022/03/21 05:17:03;;;;;;;;;;;21.60;29.90;;;;;;484627;246;1607;-40
2022/03/21 05:19:04;;;;;;;;;;;21.60;29.90;;;;;;484269;246;1082;-39
2022/03/21 05:21:05;;;;;;;;;;;21.50;29.80;;;;;;484654;246;1008;-39
2022/03/21 05:32:24;;;;;;;;;;;21.50;29.90;;;;;;484133;246;2137;-40
2022/03/21 05:36:44;;;;;;;;;;;21.50;29.90;;;;;;484211;246;1211;-39
2022/03/21 05:38:46;;;;;;;;;;;21.50;29.90;;;;;;484303;246;1059;-39
2022/03/21 05:40:47;;;;;;;;;;;21.50;29.90;;;;;;484228;246;1158;-39
2022/03/21 05:42:48;;;;;;;;;;;21.50;29.90;;;;;;484135;246;1201;-40
2022/03/21 05:44:50;;;;;;;;;;;21.50;29.90;;;;;;484121;246;1231;-39
2022/03/21 05:46:51;;;;;;;;;;;21.50;29.90;;;;;;484091;246;1141;-40
2022/03/21 05:48:54;;;;;;;;;;;21.50;29.90;;;;;;484307;246;1111;-39
2022/03/21 05:50:54;;;;;;;;;;;21.50;29.90;;;;;;483970;246;1808;-39
2022/03/21 05:52:57;;;;;;;;;;;21.60;29.90;;;;;;484498;246;2204;-40
2022/03/21 05:54:56;;;;;;;;;;;21.60;29.80;;;;;;483955;246;2222;-40
2022/03/21 05:56:58;;;;;;;;;;;21.50;29.80;;;;;;484208;246;1244;-40
2022/03/21 06:00:20;;;;;;;;;;;21.50;29.80;;;;;;484100;246;1013;-40
2022/03/21 06:01:01;;;;;;;;;;;21.50;29.80;;;;;;482858;246;1976;-40
2022/03/21 06:03:03;;;;;;;;;;;21.60;29.90;;;;;;484091;246;1067;-40
2022/03/21 06:05:04;;;;;;;;;;;21.50;29.80;;;;;;484543;246;2142;-40
2022/03/21 06:07:05;;;;;;;;;;;21.50;29.80;;;;;;484155;246;1010;-39
2022/03/21 06:09:06;;;;;;;;;;;21.50;29.80;;;;;;484104;246;1065;-39
2022/03/21 06:11:08;;;;;;;;;;;21.50;29.90;;;;;;484066;246;1130;-39
2022/03/21 06:13:09;;;;;;;;;;;21.50;29.90;;;;;;484035;246;2195;-40
2022/03/21 06:15:11;;;;;;;;;;;21.60;29.80;;;;;;484209;246;1036;-40
2022/03/21 06:17:12;;;;;;;;;;;21.50;29.80;;;;;;483972;246;1382;-40
2022/03/21 06:19:13;;;;;;;;;;;21.50;29.80;;;;;;484099;246;1140;-40
2022/03/21 06:21:16;;;;;;;;;;;21.60;29.80;;;;;;483946;246;1288;-40
2022/03/21 06:23:16;;;;;;;;;;;21.50;29.80;;;;;;483964;246;2136;-39
2022/03/21 06:25:17;;;;;;;;;;;21.50;29.80;;;;;;484110;246;1129;-40
2022/03/21 06:27:19;;;;;;;;;;;21.50;29.80;;;;;;484086;246;1220;-39
2022/03/21 06:29:20;;;;;;;;;;;21.50;29.80;;;;;;484255;246;1024;-39
2022/03/21 06:31:22;;;;;;;;;;;21.50;29.80;;;;;;483777;246;1349;-40
2022/03/21 06:33:23;;;;;;;;;;;21.50;29.80;;;;;;484272;246;2175;-40
2022/03/21 06:35:24;;;;;;;;;;;21.50;29.80;;;;;;483954;246;1073;-39
2022/03/21 06:37:26;;;;;;;;;;;21.60;29.80;;;;;;484174;246;1225;-40
2022/03/21 06:39:27;;;;;;;;;;;21.50;29.70;;;;;;484151;246;1115;-39
2022/03/21 06:41:28;;;;;;;;;;;21.50;29.80;;;;;;483869;246;1319;-40
2022/03/21 06:43:30;;;;;;;;;;;21.50;29.80;;;;;;483892;246;1621;-39
2022/03/21 06:45:32;;;;;;;;;;;21.50;29.80;;;;;;483928;246;1061;-39
2022/03/21 06:47:32;;;;;;;;;;;21.50;29.80;;;;;;484006;246;2145;-39
2022/03/21 06:49:34;;;;;;;;;;;21.50;29.80;;;;;;483860;246;1074;-40
2022/03/21 06:51:35;;;;;;;;;;;21.50;29.80;;;;;;484052;245;1253;-40
2022/03/21 06:53:36;;;;;;;;;;;21.50;29.70;;;;;;483998;246;2129;-39
2022/03/21 06:55:38;;;;;;;;;;;21.60;29.80;;;;;;483737;246;1073;-40
2022/03/21 06:57:39;;;;;;;;;;;21.50;29.70;;;;;;483797;246;1164;-39
2022/03/21 06:59:41;;;;;;;;;;;21.50;29.80;;;;;;483798;246;1078;-40
2022/03/21 07:01:42;;;;;;;;;;;21.50;29.80;;;;;;483873;246;1097;-40
2022/03/21 07:03:43;;;;;;;;;;;21.50;29.80;;;;;;484028;246;1024;-40
2022/03/21 07:05:44;;;;;;;;;;;21.60;29.70;;;;;;483925;246;1173;-39
2022/03/21 07:07:47;;;;;;;;;;;21.60;29.80;;;;;;483910;246;1500;-40
2022/03/21 07:09:47;;;;;;;;;;;21.60;29.70;;;;;;483738;246;2282;-40
2022/03/21 07:11:48;;;;;;;;;;;21.60;29.70;;;;;;483705;246;1203;-40
2022/03/21 07:13:50;;;;;;;;;;;21.50;29.70;;;;;;483745;246;1256;-40
2022/03/21 07:15:52;;;;;;;;;;;21.60;29.80;;;;;;483734;246;1107;-40
2022/03/21 07:17:55;;;;;;;;;;;21.60;29.70;;;;;;483693;246;1225;-40
2022/03/21 07:19:54;;;;;;;;;;;21.60;29.70;;;;;;483791;246;1972;-40
2022/03/21 07:21:55;;;;;;;;;;;21.50;29.70;;;;;;483845;246;1570;-39
2022/03/21 07:23:56;;;;;;;;;;;21.60;29.70;;;;;;483757;246;1140;-40
2022/03/21 07:25:58;;;;;;;;;;;21.50;29.70;;;;;;483754;246;1046;-40
2022/03/21 07:27:59;;;;;;;;;;;21.50;29.70;;;;;;483638;246;1161;-39
2022/03/21 07:30:00;;;;;;;;;;;21.60;29.70;;;;;;483684;246;1103;-40
2022/03/21 07:32:02;;;;;;;;;;;21.60;29.60;;;;;;483568;246;2172;-40
2022/03/21 07:34:03;;;;;;;;;;;21.60;29.60;;;;;;483665;246;1064;-40
2022/03/21 07:36:05;;;;;;;;;;;21.50;29.60;;;;;;483457;246;1325;-40
2022/03/21 07:38:07;;;;;;;;;;;21.50;29.60;;;;;;483477;246;1109;-40
2022/03/21 07:40:10;;;;;;;;;;;21.60;29.60;;;;;;483493;246;2014;-40
2022/03/21 07:42:12;;;;;;;;;;;21.60;29.50;;;;;;483179;246;2171;-40
2022/03/21 07:44:10;;;;;;;;;;;21.60;29.60;;;;;;483455;246;1532;-40
2022/03/21 07:48:31;;;;;;;;;;;21.60;29.60;;;;;;483790;246;1069;-40
2022/03/21 07:50:32;;;;;;;;;;;21.50;29.50;;;;;;483689;246;1058;-40
2022/03/21 07:52:33;;;;;;;;;;;21.60;29.50;;;;;;483765;246;2124;-39
2022/03/21 07:54:35;;;;;;;;;;;21.60;29.60;;;;;;483565;246;1214;-39
2022/03/21 07:56:36;;;;;;;;;;;21.60;29.50;;;;;;483425;246;1344;-40
2022/03/21 07:58:37;;;;;;;;;;;21.60;29.50;;;;;;483499;246;1207;-40
2022/03/21 08:00:41;;;;;;;;;;;21.60;29.40;;;;;;483424;246;1084;-39
2022/03/21 08:02:42;;;;;;;;;;;21.70;29.40;;;;;;483267;246;1255;-39
2022/03/21 08:04:41;;;;;;;;;;;21.60;29.50;;;;;;483252;246;1997;-39
2022/03/21 08:06:44;;;;;;;;;;;21.60;29.50;;;;;;483772;246;844;-39
2022/03/21 08:08:45;;;;;;;;;;;21.60;29.50;;;;;;484027;246;1288;-40
2022/03/21 08:10:46;;;;;;;;;;;21.60;29.50;;;;;;483574;246;1102;-40
2022/03/21 08:12:47;;;;;;;;;;;21.60;29.40;;;;;;483547;246;2195;-40
2022/03/21 08:14:48;;;;;;;;;;;21.60;29.40;;;;;;483583;246;1203;-40
2022/03/21 08:16:50;;;;;;;;;;;21.70;29.30;;;;;;483527;246;1057;-40
2022/03/21 08:18:51;;;;;;;;;;;21.60;29.30;;;;;;483277;246;1056;-40
2022/03/21 08:20:52;;;;;;;;;;;21.60;29.40;;;;;;483241;246;1092;-40
2022/03/21 08:22:54;;;;;;;;;;;21.60;29.40;;;;;;483306;246;1097;-40
2022/03/21 08:24:55;;;;;;;;;;;21.60;29.40;;;;;;483877;246;1080;-40
2022/03/21 08:26:56;;;;;;;;;;;21.70;29.40;;;;;;483593;246;1353;-40
2022/03/21 08:28:58;;;;;;;;;;;21.60;29.40;;;;;;483611;246;1235;-40
2022/03/21 08:30:59;;;;;;;;;;;21.60;29.30;;;;;;483488;246;1486;-40
2022/03/21 08:33:02;;;;;;;;;;;21.60;29.40;;;;;;483661;246;2200;-40
2022/03/21 08:35:02;;;;;;;;;;;21.60;29.30;;;;;;483531;246;1825;-39
2022/03/21 08:37:03;;;;;;;;;;;21.60;29.30;;;;;;483402;246;1376;-40
2022/03/21 08:39:04;;;;;;;;;;;21.70;29.30;;;;;;483412;246;1106;-39
2022/03/21 08:41:06;;;;;;;;;;;21.70;29.40;;;;;;483165;246;1242;-40
2022/03/21 08:43:07;;;;;;;;;;;21.70;29.40;;;;;;483245;246;1093;-40
2022/03/21 08:45:08;;;;;;;;;;;21.60;29.30;;;;;;483279;246;1176;-40
2022/03/21 08:47:10;;;;;;;;;;;21.60;29.30;;;;;;483310;246;1257;-39
2022/03/21 08:49:27;;;;;;;;;;;21.60;29.30;;;;;;483380;246;872;-39
2022/03/21 08:51:28;;;;;;;;;;;21.60;29.30;;;;;;483817;246;1203;-39
2022/03/21 08:53:29;;;;;;;;;;;21.60;29.30;;;;;;483868;246;2240;-39
2022/03/21 08:55:31;;;;;;;;;;;21.60;29.30;;;;;;483406;246;1075;-40
2022/03/21 08:57:32;;;;;;;;;;;21.60;29.30;;;;;;483331;246;1239;-39
2022/03/21 08:59:34;;;;;;;;;;;21.60;29.30;;;;;;483288;246;1457;-40
2022/03/21 09:01:35;;;;;;;;;;;21.60;29.30;;;;;;483285;246;1321;-39
2022/03/21 09:03:36;;;;;;;;;;;21.60;29.30;;;;;;483412;246;1071;-40
2022/03/21 09:05:38;;;;;;;;;;;21.60;29.30;;;;;;483463;246;1406;-40
2022/03/21 09:07:39;;;;;;;;;;;21.60;29.30;;;;;;483682;246;1254;-40
2022/03/21 09:09:40;;;;;;;;;;;21.70;29.30;;;;;;483423;246;1094;-39
2022/03/21 09:11:42;;;;;;;;;;;21.60;29.30;;;;;;483300;246;1394;-40
2022/03/21 09:13:43;;;;;;;;;;;21.60;29.30;;;;;;483545;246;2183;-39
2022/03/21 09:15:44;;;;;;;;;;;21.60;29.20;;;;;;483386;246;1395;-39
2022/03/21 09:17:46;;;;;;;;;;;21.60;29.30;;;;;;483437;246;1539;-40
2022/03/21 09:19:47;;;;;;;;;;;21.60;29.20;;;;;;483657;246;1177;-40
2022/03/21 09:21:49;;;;;;;;;;;21.60;29.20;;;;;;483605;241;1188;-40
2022/03/21 09:23:50;;;;;;;;;;;21.60;29.20;;;;;;483475;246;1118;-40
2022/03/21 09:25:51;;;;;;;;;;;21.60;29.20;;;;;;483375;246;1117;-40
2022/03/21 09:27:52;;;;;;;;;;;21.60;29.20;;;;;;483475;246;1103;-40
2022/03/21 09:29:54;;;;;;;;;;;21.60;29.20;;;;;;483195;246;1145;-40
2022/03/21 09:31:55;;;;;;;;;;;21.60;29.20;;;;;;483247;246;1106;-40
2022/03/21 09:33:56;;;;;;;;;;;21.60;29.20;;;;;;483400;246;2200;-40
2022/03/21 09:35:58;;;;;;;;;;;21.60;29.10;;;;;;483379;246;1154;-40
2022/03/21 09:38:03;;;;;;;;;;;21.60;29.10;;;;;;483272;246;1115;-40
2022/03/21 09:40:02;;;;;;;;;;;21.60;29.10;;;;;;483226;246;1888;-40
2022/03/21 09:42:03;;;;;;;;;;;21.60;29.10;;;;;;483244;246;1070;-39
2022/03/21 09:44:07;;;;;;;;;;;21.70;29.10;;;;;;483351;246;1132;-40
2022/03/21 09:46:06;;;;;;;;;;;21.60;29.00;;;;;;483133;246;2252;-39
2022/03/21 09:48:11;;;;;;;;;;;21.70;29.10;;;;;;483374;246;2314;-39
2022/03/21 09:50:11;;;;;;;;;;;21.60;29.10;;;;;;483451;246;1251;-40
2022/03/21 09:52:13;;;;;;;;;;;21.70;29.10;;;;;;483381;246;1171;-40
2022/03/21 09:54:14;;;;;;;;;;;21.60;29.00;;;;;;483492;246;2188;-40
2022/03/21 09:56:15;;;;;;;;;;;21.70;29.00;;;;;;483314;246;1780;-40
2022/03/21 09:58:16;;;;;;;;;;;21.60;29.00;;;;;;483450;246;1103;-39
2022/03/21 10:00:18;;;;;;;;;;;21.60;29.00;;;;;;483305;246;1168;-40
2022/03/21 10:02:21;;;;;;;;;;;21.60;29.00;;;;;;483153;246;1083;-39
2022/03/21 10:04:21;;;;;;;;;;;21.60;29.00;;;;;;483258;246;2495;-39
2022/03/21 10:06:22;;;;;;;;;;;21.70;29.00;;;;;;483452;246;1182;-40
2022/03/21 10:08:23;;;;;;;;;;;21.60;28.90;;;;;;483555;246;1104;-40
2022/03/21 10:10:24;;;;;;;;;;;21.60;28.90;;;;;;483477;246;1102;-39
2022/03/21 10:12:26;;;;;;;;;;;21.60;28.90;;;;;;483442;246;1136;-40
2022/03/21 10:14:27;;;;;;;;;;;21.60;28.90;;;;;;483239;246;2180;-40
2022/03/21 10:16:28;;;;;;;;;;;21.60;28.90;;;;;;483201;246;1214;-40
2022/03/21 10:18:30;;;;;;;;;;;21.60;28.90;;;;;;483665;246;1279;-39
2022/03/21 10:20:31;;;;;;;;;;;21.60;28.90;;;;;;483408;246;1064;-39
2022/03/21 10:22:32;;;;;;;;;;;21.60;28.90;;;;;;483232;246;1188;-40
2022/03/21 10:24:34;;;;;;;;;;;21.70;28.90;;;;;;483397;246;1165;-39
2022/03/21 10:26:35;;;;;;;;;;;21.60;28.90;;;;;;483227;246;1213;-40
2022/03/21 10:28:36;;;;;;;;;;;21.60;28.90;;;;;;483315;246;1141;-39
2022/03/21 10:30:38;;;;;;;;;;;21.60;28.90;;;;;;483236;246;1137;-39
2022/03/21 10:32:39;;;;;;;;;;;21.60;28.80;;;;;;483240;246;1180;-39
2022/03/21 10:34:41;;;;;;;;;;;21.60;28.80;;;;;;483405;246;2124;-39
2022/03/21 10:36:42;;;;;;;;;;;21.60;28.80;;;;;;483294;246;1188;-39
2022/03/21 10:38:44;;;;;;;;;;;21.60;28.80;;;;;;483462;246;1099;-40
2022/03/21 10:40:45;;;;;;;;;;;21.60;28.80;;;;;;483316;246;1170;-39
2022/03/21 10:42:46;;;;;;;;;;;21.60;28.80;;;;;;483241;246;1260;-39
2022/03/21 10:44:48;;;;;;;;;;;21.60;28.80;;;;;;483569;246;1258;-39
2022/03/21 10:46:49;;;;;;;;;;;21.60;28.80;;;;;;483458;246;1298;-39
2022/03/21 10:48:50;;;;;;;;;;;21.60;28.80;;;;;;483477;246;1119;-40
2022/03/21 10:50:52;;;;;;;;;;;21.60;28.70;;;;;;483482;246;1104;-40
2022/03/21 10:52:53;;;;;;;;;;;21.60;28.70;;;;;;483499;246;1293;-40
2022/03/21 10:54:57;;;;;;;;;;;21.60;28.70;;;;;;483442;246;2295;-39
2022/03/21 10:56:56;;;;;;;;;;;21.60;28.70;;;;;;483272;246;2203;-39
2022/03/21 10:58:57;;;;;;;;;;;21.60;28.80;;;;;;483626;246;2082;-40
2022/03/21 11:00:58;;;;;;;;;;;21.60;28.70;;;;;;483247;246;1201;-39
2022/03/21 11:03:00;;;;;;;;;;;21.60;28.60;;;;;;483245;246;1224;-39
2022/03/21 11:05:01;;;;;;;;;;;21.60;28.70;;;;;;483174;246;1080;-40
2022/03/21 11:07:02;;;;;;;;;;;21.60;28.70;;;;;;483412;246;1330;-40
2022/03/21 11:09:04;;;;;;;;;;;21.60;28.60;;;;;;483618;246;1083;-39
2022/03/21 11:11:05;;;;;;;;;;;21.60;28.70;;;;;;483185;246;1150;-39
2022/03/21 11:13:06;;;;;;;;;;;21.60;28.60;;;;;;483514;246;1130;-39
2022/03/21 11:15:08;;;;;;;;;;;21.60;28.70;;;;;;483341;246;2206;-40
2022/03/21 11:17:09;;;;;;;;;;;21.60;28.60;;;;;;483084;246;1186;-39
2022/03/21 11:19:10;;;;;;;;;;;21.60;28.60;;;;;;483198;246;1125;-40
2022/03/21 11:21:13;;;;;;;;;;;21.60;28.60;;;;;;483030;246;1309;-40
2022/03/21 11:23:15;;;;;;;;;;;21.60;28.50;;;;;;483127;246;2282;-39
2022/03/21 11:25:14;;;;;;;;;;;21.60;28.60;;;;;;483417;245;2144;-40
2022/03/21 11:27:16;;;;;;;;;;;21.60;28.60;;;;;;483303;246;1224;-39
2022/03/21 11:29:17;;;;;;;;;;;21.60;28.50;;;;;;483313;246;1191;-40
2022/03/21 11:31:18;;;;;;;;;;;21.60;28.60;;;;;;483328;246;1284;-40
2022/03/21 11:33:20;;;;;;;;;;;21.60;28.60;;;;;;483379;246;1192;-40
2022/03/21 11:35:22;;;;;;;;;;;21.60;28.60;;;;;;483123;246;1190;-39
2022/03/21 11:37:23;;;;;;;;;;;21.60;28.60;;;;;;483078;246;1167;-40
2022/03/21 11:39:24;;;;;;;;;;;21.60;28.60;;;;;;483380;246;1489;-40
2022/03/21 11:41:26;;;;;;;;;;;21.60;28.50;;;;;;483268;246;1086;-40
2022/03/21 11:43:29;;;;;;;;;;;21.60;28.50;;;;;;483406;246;2160;-40
2022/03/21 11:45:30;;;;;;;;;;;21.60;28.50;;;;;;483322;246;2301;-40
2022/03/21 11:47:30;;;;;;;;;;;21.60;28.50;;;;;;483166;246;1309;-39
2022/03/21 11:49:31;;;;;;;;;;;21.60;28.50;;;;;;483402;246;1114;-39
2022/03/21 11:51:33;;;;;;;;;;;21.60;28.50;;;;;;483237;246;1205;-40
2022/03/21 11:53:34;;;;;;;;;;;21.60;28.50;;;;;;483283;246;2192;-40
2022/03/21 11:55:35;;;;;;;;;;;21.60;28.50;;;;;;483473;246;1112;-40
2022/03/21 11:57:38;;;;;;;;;;;21.60;28.50;;;;;;483402;246;1066;-40
2022/03/21 11:59:38;;;;;;;;;;;21.50;28.50;;;;;;483342;246;2174;-40
2022/03/21 12:01:39;;;;;;;;;;;21.60;28.50;;;;;;483514;246;1188;-40
2022/03/21 12:03:41;;;;;;;;;;;21.60;28.50;;;;;;483405;246;1089;-40
2022/03/21 12:05:50;;;;;;;;;;;21.50;28.50;;;;;;483483;246;1149;-39
2022/03/21 12:07:44;;;;;;;;;;;21.60;28.50;;;;;;483030;246;1540;-40
2022/03/21 12:09:45;;;;;;;;;;;21.60;28.50;;;;;;483546;246;1354;-40
2022/03/21 12:11:48;;;;;;;;;;;21.50;28.50;;;;;;483586;246;1122;-39
2022/03/21 12:13:48;;;;;;;;;;;21.60;28.50;;;;;;483657;246;2297;-39